Terminal Aerodrome Forecast
Issued by NWS Mt. Holly, NJ

Current Version | Previous Version | Text Only | Print | Product List | Glossary On
Versions: 1 2 3 4 5 6 7 8 9 10 11 12 13 14 15 16 17 18 19 20 21 22 23 24 25
872
FTUS41 KPHI 262321
TAFPHL
TAF
KPHL 262321Z 2700/2806 17008KT P6SM SCT025 OVC045
     FM270500 23008KT 6SM -SHRA FEW008 OVC015
      TEMPO 2707/2711 28012KT 3SM SHRA OVC008
     FM271300 30008KT P6SM VCSH SCT020 OVC035
     FM271600 27008KT P6SM SCT040 BKN150
     FM271900 23005KT P6SM FEW050 BKN200=

USA.gov is the U.S. government's official web portal to all federal, state and local government web resources and services.